createdAt,value
2017-09-29T00:02:03.859Z,7.10
2017-09-29T00:04:31.299Z,7.77
2017-09-29T00:06:59.503Z,8.47
2017-09-29T00:09:26.959Z,8.53
2017-09-29T00:11:54.395Z,7.97
2017-09-29T00:14:21.856Z,8.10
2017-09-29T00:16:49.299Z,8.20
2017-09-29T00:19:17.521Z,8.23
2017-09-29T00:21:44.973Z,9.20
2017-09-29T00:24:12.416Z,8.10
2017-09-29T00:26:39.865Z,8.67
2017-09-29T00:29:07.301Z,7.73
2017-09-29T00:31:34.744Z,7.57
2017-09-29T00:34:02.952Z,8.20
2017-09-29T00:36:31.159Z,7.20
2017-09-29T00:38:58.616Z,7.27
2017-09-29T00:41:26.051Z,7.70
2017-09-29T00:43:53.499Z,7.43
2017-09-29T00:46:20.953Z,7.43
2017-09-29T00:48:48.413Z,8.40
2017-09-29T00:51:15.864Z,7.20
2017-09-29T00:53:43.321Z,6.07
2017-09-29T00:56:10.775Z,10.00
2017-09-29T00:58:38.218Z,7.03
2017-09-29T01:01:05.663Z,6.57
2017-09-29T01:03:33.875Z,6.83
2017-09-29T01:06:01.314Z,6.80
2017-09-29T01:08:28.760Z,6.87
2017-09-29T01:10:56.203Z,7.40
2017-09-29T01:13:24.415Z,7.70
2017-09-29T01:15:51.865Z,7.67
2017-09-29T01:18:19.320Z,8.17
2017-09-29T01:20:46.772Z,8.20
2017-09-29T01:23:14.227Z,8.77
2017-09-29T01:25:41.683Z,8.30
2017-09-29T01:28:09.127Z,8.60
2017-09-29T01:30:36.571Z,8.93
2017-09-29T01:33:04.020Z,8.70
2017-09-29T01:35:32.238Z,7.90
2017-09-29T01:37:59.683Z,8.33
2017-09-29T01:40:27.137Z,8.70
2017-09-29T01:42:54.595Z,7.80
2017-09-29T01:45:22.053Z,8.83
2017-09-29T01:47:49.504Z,7.93
2017-09-29T01:50:16.966Z,7.97
2017-09-29T01:52:44.419Z,8.93
2017-09-29T01:55:11.875Z,9.57
2017-09-29T01:57:39.323Z,7.87
2017-09-29T02:00:06.787Z,7.20
2017-09-29T02:02:34.235Z,8.67
2017-09-29T02:05:02.480Z,7.80
2017-09-29T02:07:30.707Z,8.90
2017-09-29T02:09:58.146Z,8.43
2017-09-29T02:12:25.602Z,8.80
2017-09-29T02:14:53.043Z,8.23
2017-09-29T02:17:20.558Z,8.00
2017-09-29T02:19:47.991Z,7.87
2017-09-29T02:22:15.447Z,7.40
2017-09-29T02:24:42.895Z,7.40
2017-09-29T02:27:10.344Z,7.87
2017-09-29T02:29:37.794Z,8.93
2017-09-29T02:32:05.251Z,8.83
2017-09-29T02:34:32.696Z,8.80
2017-09-29T02:37:00.143Z,8.07
2017-09-29T02:39:27.576Z,7.37
2017-09-29T02:41:55.794Z,7.90
2017-09-29T02:44:23.244Z,7.23
2017-09-29T02:46:50.688Z,7.00
2017-09-29T02:49:18.124Z,7.27
2017-09-29T02:51:46.344Z,7.00
2017-09-29T02:54:13.781Z,6.73
2017-09-29T02:56:42.270Z,6.77
2017-09-29T02:59:09.990Z,7.00
2017-09-29T03:01:39.430Z,7.43
2017-09-29T03:04:07.302Z,8.10
2017-09-29T03:06:34.759Z,7.40
2017-09-29T03:09:02.215Z,7.37
2017-09-29T03:11:29.671Z,12.57
2017-09-29T03:13:57.127Z,7.20
2017-09-29T03:16:24.582Z,7.90
2017-09-29T03:18:52.034Z,7.30
2017-09-29T03:21:19.496Z,7.83
2017-09-29T03:23:46.950Z,8.00
2017-09-29T03:26:14.409Z,7.87
2017-09-29T03:28:41.863Z,7.10
2017-09-29T03:31:09.303Z,7.43
2017-09-29T03:33:36.747Z,7.37
2017-09-29T03:36:04.950Z,8.30
2017-09-29T03:38:32.408Z,7.67
2017-09-29T03:40:59.862Z,7.70
2017-09-29T03:43:27.319Z,7.93
2017-09-29T03:45:54.779Z,8.70
2017-09-29T03:48:22.236Z,8.70
2017-09-29T03:50:50.015Z,8.20
2017-09-29T03:53:17.743Z,8.50
2017-09-29T03:55:47.639Z,7.80
2017-09-29T03:58:16.176Z,7.93
2017-09-29T04:00:43.633Z,8.63
2017-09-29T04:03:11.103Z,10.10
2017-09-29T04:05:38.547Z,8.00
2017-09-29T04:08:06.000Z,8.10
2017-09-29T04:10:33.448Z,9.60
2017-09-29T04:13:00.903Z,9.00
2017-09-29T04:15:28.350Z,8.47
2017-09-29T04:17:55.786Z,8.10
2017-09-29T04:20:23.238Z,8.37
2017-09-29T04:22:50.667Z,8.70
2017-09-29T04:25:18.119Z,8.30
2017-09-29T04:27:45.559Z,7.60
2017-09-29T04:30:13.006Z,7.23
2017-09-29T04:32:40.453Z,7.37
2017-09-29T04:35:07.903Z,7.47
2017-09-29T04:37:35.348Z,7.50
2017-09-29T04:40:02.803Z,7.97
2017-09-29T04:42:30.243Z,7.83
2017-09-29T04:44:57.692Z,7.87
2017-09-29T04:47:25.910Z,7.23
2017-09-29T04:49:53.367Z,7.80
2017-09-29T04:52:21.535Z,7.83
2017-09-29T04:54:48.998Z,7.93
2017-09-29T04:57:16.443Z,8.00
2017-09-29T04:59:43.887Z,9.00
2017-09-29T05:02:11.331Z,8.73
2017-09-29T05:04:38.775Z,7.37
2017-09-29T05:07:06.987Z,7.53
2017-09-29T05:09:34.427Z,8.77
2017-09-29T05:12:01.867Z,8.40
2017-09-29T05:14:29.319Z,8.80
2017-09-29T05:16:57.528Z,8.87
2017-09-29T05:19:24.971Z,8.30
2017-09-29T05:21:52.421Z,9.10
2017-09-29T05:24:19.870Z,9.80
2017-09-29T05:26:47.306Z,9.23
2017-09-29T05:29:15.523Z,9.70
2017-09-29T05:31:42.974Z,9.50
2017-09-29T05:34:10.430Z,9.70
2017-09-29T05:39:10.840Z,9.13
2017-09-29T05:41:39.046Z,8.67
2017-09-29T05:44:06.495Z,9.90
2017-09-29T05:46:33.932Z,8.83
2017-09-29T05:49:01.403Z,8.53
2017-09-29T05:51:28.867Z,8.40
2017-09-29T05:53:56.316Z,8.80
2017-09-29T05:56:24.404Z,9.30
2017-09-29T05:58:51.889Z,9.57
2017-09-29T06:01:19.465Z,8.53
2017-09-29T06:03:46.952Z,8.57
2017-09-29T06:06:14.790Z,9.00
2017-09-29T06:08:43.131Z,8.90
2017-09-29T06:11:10.609Z,9.23
2017-09-29T06:13:38.057Z,9.03
2017-09-29T06:16:05.499Z,9.20
2017-09-29T06:18:32.976Z,10.30
2017-09-29T06:21:00.411Z,8.27
2017-09-29T06:23:27.859Z,9.00
2017-09-29T06:25:55.299Z,8.93
2017-09-29T06:28:22.759Z,9.60
2017-09-29T06:30:50.207Z,9.80
2017-09-29T06:33:17.651Z,8.17
2017-09-29T06:35:45.096Z,9.30
2017-09-29T06:38:13.314Z,8.47
2017-09-29T06:40:40.759Z,7.97
2017-09-29T06:43:08.227Z,8.73
2017-09-29T06:45:36.436Z,8.70
2017-09-29T06:48:03.893Z,8.47
2017-09-29T06:50:31.323Z,8.13
2017-09-29T06:53:00.269Z,8.80
2017-09-29T06:55:27.755Z,8.40
2017-09-29T06:57:55.205Z,8.73
2017-09-29T07:00:22.664Z,8.50
2017-09-29T07:02:50.115Z,8.00
2017-09-29T07:05:17.563Z,9.10
2017-09-29T07:07:45.019Z,10.70
2017-09-29T07:10:12.468Z,9.27
2017-09-29T07:12:39.939Z,9.60
2017-09-29T07:15:07.396Z,9.07
2017-09-29T07:17:34.841Z,9.43
2017-09-29T07:20:02.283Z,9.30
2017-09-29T07:22:30.491Z,9.07
2017-09-29T07:25:00.007Z,9.40
2017-09-29T07:27:28.579Z,9.47
2017-09-29T07:29:57.162Z,8.80
2017-09-29T07:32:24.827Z,9.60
2017-09-29T07:34:52.270Z,8.60
2017-09-29T07:37:19.708Z,8.07
2017-09-29T07:39:47.172Z,8.00
2017-09-29T07:42:14.602Z,8.90
2017-09-29T07:44:42.819Z,8.87
2017-09-29T07:47:10.265Z,9.30
2017-09-29T07:49:37.720Z,9.50
2017-09-29T07:52:05.159Z,9.67
2017-09-29T07:54:32.604Z,9.40
2017-09-29T07:57:00.821Z,9.30
2017-09-29T07:59:28.274Z,9.27
2017-09-29T08:01:55.720Z,8.43
2017-09-29T08:04:23.173Z,8.97
2017-09-29T08:06:50.629Z,9.00
2017-09-29T08:09:18.084Z,9.50
2017-09-29T08:11:45.527Z,9.57
2017-09-29T08:14:12.970Z,9.20
2017-09-29T08:16:41.187Z,10.00
2017-09-29T08:19:08.627Z,8.83
2017-09-29T08:21:36.088Z,12.37
2017-09-29T08:24:03.544Z,9.37
2017-09-29T08:26:31.712Z,9.87
2017-09-29T08:28:59.156Z,10.07
2017-09-29T08:31:26.604Z,10.97
2017-09-29T08:33:54.055Z,10.53
2017-09-29T08:36:22.270Z,10.00
2017-09-29T08:38:49.715Z,10.97
2017-09-29T08:41:17.167Z,10.57
2017-09-29T08:43:44.623Z,9.90
2017-09-29T08:46:12.095Z,10.00
2017-09-29T08:48:39.535Z,10.33
2017-09-29T08:51:06.990Z,10.17
2017-09-29T08:53:34.438Z,10.27
2017-09-29T08:56:01.876Z,10.97
2017-09-29T08:58:30.100Z,9.70
2017-09-29T09:00:57.544Z,9.60
2017-09-29T09:03:25.003Z,12.93
2017-09-29T09:05:52.448Z,9.50
2017-09-29T09:08:19.907Z,11.10
2017-09-29T09:10:47.359Z,10.27
2017-09-29T09:13:14.915Z,11.23
2017-09-29T09:15:42.365Z,10.10
2017-09-29T09:18:09.813Z,10.73
2017-09-29T09:20:37.287Z,9.97
2017-09-29T09:23:04.740Z,10.33
2017-09-29T09:25:32.199Z,10.90
2017-09-29T09:28:00.411Z,10.40
2017-09-29T09:30:27.856Z,9.90
2017-09-29T09:32:55.319Z,17.43
2017-09-29T09:35:22.775Z,12.17
2017-09-29T09:37:50.231Z,11.70
2017-09-29T09:40:17.691Z,11.07
2017-09-29T09:42:45.147Z,11.20
2017-09-29T09:45:12.618Z,13.50
2017-09-29T09:47:40.060Z,11.33
2017-09-29T09:50:07.515Z,11.40
2017-09-29T09:52:34.967Z,10.90
2017-09-29T09:55:02.427Z,11.03
2017-09-29T09:57:29.883Z,10.23
2017-09-29T09:59:57.343Z,11.27
2017-09-29T10:02:24.801Z,10.63
2017-09-29T10:04:52.255Z,11.80
2017-09-29T10:07:19.707Z,12.27
2017-09-29T10:09:47.162Z,11.83
2017-09-29T10:12:14.611Z,9.73
2017-09-29T10:14:42.070Z,9.40
2017-09-29T10:17:09.513Z,8.43
2017-09-29T10:19:36.968Z,8.93
2017-09-29T10:22:04.420Z,12.00
2017-09-29T10:24:31.881Z,11.10
2017-09-29T10:26:59.334Z,10.63
2017-09-29T10:29:26.787Z,12.37
2017-09-29T10:31:54.249Z,11.83
2017-09-29T10:34:21.695Z,14.13
2017-09-29T10:36:49.149Z,10.70
2017-09-29T10:39:16.608Z,11.67
2017-09-29T10:41:44.060Z,12.50
2017-09-29T10:44:11.514Z,10.67
2017-09-29T10:46:38.963Z,10.60
2017-09-29T10:49:06.401Z,10.37
2017-09-29T10:51:33.857Z,12.40
2017-09-29T10:54:02.067Z,9.93
2017-09-29T10:56:29.512Z,10.83
2017-09-29T10:58:56.967Z,9.77
2017-09-29T11:01:24.412Z,15.77
2017-09-29T11:03:51.862Z,9.83
2017-09-29T11:06:19.308Z,9.33
2017-09-29T11:08:47.532Z,9.60
2017-09-29T11:11:14.983Z,13.60
2017-09-29T11:13:42.431Z,9.03
2017-09-29T11:16:09.880Z,9.77
2017-09-29T11:18:37.335Z,12.20
2017-09-29T11:21:04.777Z,9.30
2017-09-29T11:23:32.227Z,8.27
2017-09-29T11:25:59.663Z,8.60
2017-09-29T11:28:27.875Z,9.20
2017-09-29T11:30:58.148Z,10.00
2017-09-29T11:33:25.591Z,9.70
2017-09-29T11:35:53.052Z,10.77
2017-09-29T11:38:20.486Z,8.43
2017-09-29T11:40:47.936Z,7.97
2017-09-29T11:43:15.383Z,7.67
2017-09-29T11:45:42.832Z,9.53
2017-09-29T11:48:10.288Z,8.50
2017-09-29T11:50:37.724Z,8.93
2017-09-29T11:53:05.163Z,8.67
2017-09-29T11:55:33.389Z,8.33
2017-09-29T11:58:00.835Z,9.10
2017-09-29T12:00:28.287Z,9.30
2017-09-29T12:02:55.743Z,8.77
2017-09-29T12:05:23.198Z,13.03
2017-09-29T12:07:50.643Z,8.43
2017-09-29T12:10:18.091Z,8.30
2017-09-29T12:12:45.538Z,8.20
2017-09-29T12:15:13.028Z,7.03
2017-09-29T12:17:40.475Z,8.50
2017-09-29T12:20:07.940Z,7.67
2017-09-29T12:22:35.390Z,12.10
2017-09-29T12:25:02.851Z,10.00
2017-09-29T12:27:30.301Z,7.67
2017-09-29T12:29:57.738Z,8.53
2017-09-29T12:32:25.175Z,7.20
2017-09-29T12:34:53.417Z,7.83
2017-09-29T12:37:21.823Z,7.93
2017-09-29T12:39:49.332Z,7.00
2017-09-29T12:42:17.114Z,7.47
2017-09-29T12:44:44.600Z,8.30
2017-09-29T12:47:12.090Z,7.77
2017-09-29T12:49:42.389Z,8.20
2017-09-29T12:52:10.701Z,7.30
2017-09-29T12:54:38.219Z,7.90
2017-09-29T12:57:06.439Z,9.33
2017-09-29T12:59:34.035Z,12.13
2017-09-29T13:02:01.523Z,7.30
2017-09-29T13:04:28.979Z,7.70
2017-09-29T13:06:57.236Z,9.00
2017-09-29T13:09:24.675Z,7.50
2017-09-29T13:11:52.131Z,10.63
2017-09-29T13:14:19.584Z,9.50
2017-09-29T13:16:48.295Z,10.03
2017-09-29T13:19:15.727Z,7.90
2017-09-29T13:21:43.271Z,9.50
2017-09-29T13:24:10.855Z,6.67
2017-09-29T13:26:38.304Z,6.93
2017-09-29T13:29:05.770Z,6.50
2017-09-29T13:31:33.203Z,6.40
2017-09-29T13:34:00.655Z,8.77
2017-09-29T13:36:28.958Z,6.93
2017-09-29T13:38:56.404Z,7.73
2017-09-29T13:41:23.846Z,7.80
2017-09-29T13:43:51.300Z,9.23
2017-09-29T13:46:18.743Z,8.73
2017-09-29T13:48:46.200Z,7.77
2017-09-29T13:51:14.407Z,8.10
2017-09-29T13:53:43.022Z,7.77
2017-09-29T13:56:11.613Z,13.20
2017-09-29T13:58:39.087Z,10.00
2017-09-29T14:01:06.543Z,7.57
2017-09-29T14:03:34.018Z,9.40
2017-09-29T14:06:01.460Z,8.90
2017-09-29T14:08:28.922Z,25.67
2017-09-29T14:10:56.671Z,49.13
2017-09-29T14:13:24.226Z,31.27
2017-09-29T14:15:51.690Z,28.70
2017-09-29T14:18:19.186Z,15.47
2017-09-29T14:20:47.279Z,9.10
2017-09-29T14:23:15.507Z,9.40
2017-09-29T14:25:42.971Z,8.37
2017-09-29T14:28:10.494Z,6.43
2017-09-29T14:30:37.942Z,7.63
2017-09-29T14:33:05.398Z,10.87
2017-09-29T14:35:32.875Z,7.07
2017-09-29T14:38:01.091Z,6.73
2017-09-29T14:40:28.540Z,7.00
2017-09-29T14:42:55.988Z,7.07
2017-09-29T14:45:23.430Z,7.13
2017-09-29T14:47:50.888Z,7.13
2017-09-29T14:50:18.375Z,8.07
2017-09-29T14:52:45.843Z,8.13
2017-09-29T14:55:14.075Z,7.23
2017-09-29T14:57:41.526Z,6.50
2017-09-29T15:00:08.975Z,9.97
2017-09-29T15:02:36.431Z,13.10
2017-09-29T15:05:03.895Z,10.13
2017-09-29T15:07:31.349Z,9.43
2017-09-29T15:09:58.808Z,10.70
2017-09-29T15:12:26.260Z,10.27
2017-09-29T15:14:53.718Z,8.70
2017-09-29T15:17:21.169Z,8.17
2017-09-29T15:19:48.623Z,7.83
2017-09-29T15:22:16.575Z,7.67
2017-09-29T15:24:44.867Z,8.60
2017-09-29T15:27:12.299Z,9.13
2017-09-29T15:29:39.745Z,9.23
2017-09-29T15:32:07.950Z,9.13
2017-09-29T15:34:35.407Z,8.30
2017-09-29T15:37:02.867Z,7.37
2017-09-29T15:39:30.318Z,8.47
2017-09-29T15:41:57.763Z,8.50
2017-09-29T15:44:25.210Z,8.97
2017-09-29T15:46:52.651Z,8.13
2017-09-29T15:49:20.875Z,12.43
2017-09-29T15:51:48.323Z,9.00
2017-09-29T15:54:15.776Z,10.03
2017-09-29T15:56:43.235Z,9.30
2017-09-29T15:59:10.691Z,12.77
2017-09-29T16:01:38.142Z,8.80
2017-09-29T16:04:05.582Z,9.23
2017-09-29T16:06:33.031Z,8.40
2017-09-29T16:09:01.251Z,9.43
2017-09-29T16:11:28.700Z,7.83
2017-09-29T16:13:56.159Z,7.97
2017-09-29T16:16:23.616Z,8.83
2017-09-29T16:18:51.068Z,10.60
2017-09-29T16:21:18.519Z,8.47
2017-09-29T16:23:45.975Z,8.33
2017-09-29T16:26:13.430Z,8.60
2017-09-29T16:28:40.900Z,8.60
2017-09-29T16:31:08.379Z,8.53
2017-09-29T16:33:35.827Z,8.30
2017-09-29T16:36:03.276Z,9.53
2017-09-29T16:38:30.731Z,8.40
2017-09-29T16:40:58.185Z,7.43
2017-09-29T16:43:25.638Z,7.00
2017-09-29T16:45:53.113Z,9.30
2017-09-29T16:48:20.548Z,8.27
2017-09-29T16:50:47.986Z,8.53
2017-09-29T16:53:15.447Z,7.37
2017-09-29T16:55:42.906Z,8.30
2017-09-29T16:58:10.359Z,9.77
2017-09-29T17:00:37.828Z,11.63
2017-09-29T17:03:05.287Z,9.53
2017-09-29T17:05:32.735Z,9.37
2017-09-29T17:08:00.196Z,8.83
2017-09-29T17:10:27.654Z,21.20
2017-09-29T17:12:55.116Z,34.50
2017-09-29T17:15:22.583Z,26.93
2017-09-29T17:17:50.042Z,23.23
2017-09-29T17:20:17.487Z,21.60
2017-09-29T17:22:44.939Z,25.93
2017-09-29T17:25:12.423Z,23.07
2017-09-29T17:27:39.868Z,20.23
2017-09-29T17:30:07.328Z,13.50
2017-09-29T17:32:34.780Z,13.33
2017-09-29T17:35:02.244Z,20.13
2017-09-29T17:37:29.693Z,10.63
2017-09-29T17:39:57.163Z,11.50
2017-09-29T17:42:24.603Z,8.63
2017-09-29T17:44:52.075Z,8.63
2017-09-29T17:47:19.523Z,9.13
2017-09-29T17:49:46.978Z,12.23
2017-09-29T17:52:14.435Z,8.90
2017-09-29T17:54:41.893Z,9.30
2017-09-29T17:57:09.347Z,16.37
2017-09-29T17:59:36.809Z,9.00
2017-09-29T18:04:38.197Z,9.47
2017-09-29T18:07:05.631Z,8.00
2017-09-29T18:09:33.078Z,9.80
2017-09-29T18:12:00.534Z,8.10
2017-09-29T18:14:27.974Z,9.30
2017-09-29T18:16:55.429Z,10.70
2017-09-29T18:19:22.866Z,9.10
2017-09-29T18:21:51.087Z,8.73
2017-09-29T18:24:18.535Z,9.47
2017-09-29T18:26:45.987Z,9.97
2017-09-29T18:29:13.431Z,9.20
2017-09-29T18:31:40.889Z,10.30
2017-09-29T18:34:08.331Z,9.10
2017-09-29T18:36:36.547Z,11.93
2017-09-29T18:39:03.987Z,9.07
2017-09-29T18:41:34.852Z,9.07
2017-09-29T18:44:09.910Z,9.23
2017-09-29T18:49:39.132Z,11.87
2017-09-29T18:52:07.354Z,12.90
2017-09-29T18:54:34.815Z,14.87
2017-09-29T18:57:02.276Z,11.70
2017-09-29T18:59:29.731Z,11.30
2017-09-29T19:01:57.449Z,14.37
2017-09-29T19:04:25.009Z,13.60
2017-09-29T19:06:53.224Z,12.47
2017-09-29T19:09:20.667Z,11.00
2017-09-29T19:11:48.144Z,12.93
2017-09-29T19:14:15.602Z,12.27
2017-09-29T19:16:43.052Z,13.93
2017-09-29T19:19:10.524Z,11.90
2017-09-29T19:21:37.972Z,14.80
2017-09-29T19:24:06.185Z,12.20
2017-09-29T19:26:34.433Z,11.00
2017-09-29T19:29:01.887Z,9.40
2017-09-29T19:31:29.331Z,10.30
2017-09-29T19:33:56.807Z,9.63
2017-09-29T19:36:24.257Z,10.40
2017-09-29T19:38:51.721Z,10.10
2017-09-29T19:41:19.174Z,10.13
2017-09-29T19:43:46.615Z,9.90
2017-09-29T19:46:14.059Z,8.27
2017-09-29T19:48:41.516Z,10.10
2017-09-29T19:51:09.011Z,10.10
2017-09-29T19:53:36.477Z,10.97
2017-09-29T19:56:03.923Z,9.67
2017-09-29T19:58:31.372Z,10.40
2017-09-29T20:00:58.838Z,9.10
2017-09-29T20:03:26.284Z,9.23
2017-09-29T20:05:53.730Z,9.17
2017-09-29T20:08:21.166Z,8.33
2017-09-29T20:10:48.614Z,9.03
2017-09-29T20:13:16.058Z,9.23
2017-09-29T20:15:43.514Z,8.87
2017-09-29T20:18:10.948Z,7.80
2017-09-29T20:20:39.184Z,8.93
2017-09-29T20:23:06.608Z,8.50
2017-09-29T20:25:34.062Z,9.00
2017-09-29T20:28:01.503Z,8.63
2017-09-29T20:30:28.955Z,8.87
2017-09-29T20:32:56.395Z,8.33
2017-09-29T20:35:24.623Z,8.90
2017-09-29T20:37:52.058Z,8.20
2017-09-29T20:40:19.499Z,8.47
2017-09-29T20:42:46.947Z,7.50
2017-09-29T20:45:15.247Z,8.20
2017-09-29T20:47:42.683Z,9.30
2017-09-29T20:50:10.123Z,8.77
2017-09-29T20:52:38.331Z,9.10
2017-09-29T20:55:05.771Z,9.27
2017-09-29T20:57:33.232Z,9.47
2017-09-29T21:00:00.683Z,9.20
2017-09-29T21:02:28.136Z,8.27
2017-09-29T21:04:56.347Z,7.90
2017-09-29T21:07:23.786Z,6.60
2017-09-29T21:09:51.232Z,8.00
2017-09-29T21:12:18.671Z,7.73
2017-09-29T21:14:46.887Z,7.50
2017-09-29T21:17:14.335Z,7.97
2017-09-29T21:19:41.783Z,8.40
2017-09-29T21:22:09.243Z,13.77
2017-09-29T21:24:36.698Z,8.60
2017-09-29T21:27:04.167Z,8.80
2017-09-29T21:29:31.611Z,8.97
2017-09-29T21:31:59.047Z,7.80
2017-09-29T21:34:26.501Z,8.60
2017-09-29T21:36:54.708Z,9.43
2017-09-29T21:39:23.059Z,9.30
2017-09-29T21:41:50.494Z,7.63
2017-09-29T21:44:18.711Z,6.70
2017-09-29T21:46:46.157Z,7.23
2017-09-29T21:49:13.614Z,7.27
2017-09-29T21:51:41.054Z,7.53
2017-09-29T21:54:08.503Z,7.37
2017-09-29T21:56:35.942Z,10.50
2017-09-29T21:59:04.155Z,7.97
2017-09-29T22:01:31.590Z,6.93
2017-09-29T22:03:59.032Z,8.87
2017-09-29T22:06:27.249Z,8.77
2017-09-29T22:08:54.699Z,9.30
2017-09-29T22:11:22.139Z,8.70
2017-09-29T22:13:49.571Z,8.10
2017-09-29T22:16:17.785Z,7.97
2017-09-29T22:18:45.233Z,7.97
2017-09-29T22:21:12.675Z,8.83
2017-09-29T22:23:40.116Z,8.07
2017-09-29T22:26:08.323Z,8.30
2017-09-29T22:28:35.767Z,8.30
2017-09-29T22:31:03.222Z,8.60
2017-09-29T22:33:30.664Z,8.30
2017-09-29T22:35:58.877Z,8.60
2017-09-29T22:38:26.323Z,8.40
2017-09-29T22:40:53.780Z,9.47
2017-09-29T22:43:21.223Z,9.10
2017-09-29T22:45:48.699Z,10.33
2017-09-29T22:48:16.130Z,9.27
2017-09-29T22:50:43.568Z,9.07
2017-09-29T22:53:11.788Z,8.83
2017-09-29T22:55:39.235Z,8.07
2017-09-29T22:58:06.691Z,8.47
2017-09-29T23:00:34.130Z,8.90
2017-09-29T23:03:01.579Z,7.53
2017-09-29T23:05:29.031Z,7.20
2017-09-29T23:07:57.254Z,7.57
2017-09-29T23:10:24.698Z,8.13
2017-09-29T23:12:52.143Z,10.80
2017-09-29T23:15:19.601Z,8.87
2017-09-29T23:17:47.064Z,9.43
2017-09-29T23:20:14.509Z,12.70
2017-09-29T23:22:41.947Z,9.13
2017-09-29T23:25:09.382Z,8.73
2017-09-29T23:27:37.607Z,8.27
2017-09-29T23:30:05.052Z,8.90
2017-09-29T23:32:32.496Z,7.83
2017-09-29T23:34:59.946Z,9.00
2017-09-29T23:37:27.391Z,10.40
2017-09-29T23:39:55.622Z,9.00
2017-09-29T23:42:23.066Z,7.43
2017-09-29T23:44:50.531Z,8.13
2017-09-29T23:47:17.962Z,7.97
2017-09-29T23:49:45.423Z,8.57
2017-09-29T23:52:12.877Z,8.07
2017-09-29T23:54:40.335Z,8.00
2017-09-29T23:57:07.788Z,8.63
2017-09-29T23:59:35.232Z,8.00
